sensor_id;sensor_type;location;lat;lon;timestamp;P1;durP1;ratioP1;P2;durP2;ratioP2
19187;SDS011;9726;52.198;8.792;2023-04-01T00:01:54;8.77;;;3.20;;
19187;SDS011;9726;52.198;8.792;2023-04-01T00:04:22;7.30;;;3.00;;
19187;SDS011;9726;52.198;8.792;2023-04-01T00:06:49;10.90;;;3.53;;
19187;SDS011;9726;52.198;8.792;2023-04-01T00:09:18;3.40;;;2.60;;
19187;SDS011;9726;52.198;8.792;2023-04-01T00:11:45;4.90;;;2.60;;
19187;SDS011;9726;52.198;8.792;2023-04-01T00:14:13;8.47;;;3.00;;
19187;SDS011;9726;52.198;8.792;2023-04-01T00:16:41;7.03;;;3.10;;
19187;SDS011;9726;52.198;8.792;2023-04-01T00:19:08;6.20;;;2.80;;
19187;SDS011;9726;52.198;8.792;2023-04-01T00:21:36;5.77;;;3.17;;
19187;SDS011;9726;52.198;8.792;2023-04-01T00:24:04;7.07;;;3.00;;
19187;SDS011;9726;52.198;8.792;2023-04-01T00:26:32;3.43;;;3.13;;
19187;SDS011;9726;52.198;8.792;2023-04-01T00:28:59;4.43;;;2.80;;
19187;SDS011;9726;52.198;8.792;2023-04-01T00:31:27;5.20;;;2.50;;
19187;SDS011;9726;52.198;8.792;2023-04-01T00:33:55;5.33;;;2.80;;
19187;SDS011;9726;52.198;8.792;2023-04-01T00:36:22;5.33;;;2.43;;
19187;SDS011;9726;52.198;8.792;2023-04-01T00:38:50;10.43;;;2.40;;
19187;SDS011;9726;52.198;8.792;2023-04-01T00:41:19;9.40;;;2.17;;
19187;SDS011;9726;52.198;8.792;2023-04-01T00:43:48;8.70;;;2.17;;
19187;SDS011;9726;52.198;8.792;2023-04-01T00:46:16;9.50;;;2.00;;
19187;SDS011;9726;52.198;8.792;2023-04-01T00:48:48;4.63;;;1.87;;
19187;SDS011;9726;52.198;8.792;2023-04-01T00:51:17;5.27;;;1.90;;
19187;SDS011;9726;52.198;8.792;2023-04-01T00:53:47;4.70;;;1.70;;
19187;SDS011;9726;52.198;8.792;2023-04-01T00:56:16;4.13;;;1.50;;
19187;SDS011;9726;52.198;8.792;2023-04-01T00:58:46;4.77;;;1.97;;
19187;SDS011;9726;52.198;8.792;2023-04-01T01:01:14;4.30;;;1.47;;
19187;SDS011;9726;52.198;8.792;2023-04-01T01:03:42;3.13;;;1.53;;
19187;SDS011;9726;52.198;8.792;2023-04-01T01:06:24;5.03;;;1.50;;
19187;SDS011;9726;52.198;8.792;2023-04-01T01:16:43;5.40;;;1.40;;
19187;SDS011;9726;52.198;8.792;2023-04-01T01:27:21;6.27;;;2.03;;
19187;SDS011;9726;52.198;8.792;2023-04-01T01:29:59;7.63;;;1.40;;
19187;SDS011;9726;52.198;8.792;2023-04-01T01:37:37;5.70;;;1.83;;
19187;SDS011;9726;52.198;8.792;2023-04-01T01:40:07;3.67;;;1.37;;
19187;SDS011;9726;52.198;8.792;2023-04-01T01:42:36;11.53;;;1.60;;
19187;SDS011;9726;52.198;8.792;2023-04-01T01:45:05;14.37;;;1.93;;
19187;SDS011;9726;52.198;8.792;2023-04-01T01:47:33;4.20;;;1.50;;
19187;SDS011;9726;52.198;8.792;2023-04-01T01:50:02;3.77;;;1.30;;
19187;SDS011;9726;52.198;8.792;2023-04-01T01:52:31;9.20;;;1.63;;
19187;SDS011;9726;52.198;8.792;2023-04-01T01:54:58;3.53;;;1.10;;
19187;SDS011;9726;52.198;8.792;2023-04-01T01:57:36;3.47;;;1.13;;
19187;SDS011;9726;52.198;8.792;2023-04-01T02:00:12;1.43;;;1.20;;
19187;SDS011;9726;52.198;8.792;2023-04-01T02:02:42;2.93;;;1.03;;
19187;SDS011;9726;52.198;8.792;2023-04-01T02:05:14;4.43;;;1.33;;
19187;SDS011;9726;52.198;8.792;2023-04-01T02:07:44;4.80;;;1.20;;
19187;SDS011;9726;52.198;8.792;2023-04-01T02:10:13;4.50;;;1.07;;
19187;SDS011;9726;52.198;8.792;2023-04-01T02:12:42;3.93;;;1.10;;
19187;SDS011;9726;52.198;8.792;2023-04-01T02:15:12;4.57;;;1.07;;
19187;SDS011;9726;52.198;8.792;2023-04-01T02:17:44;2.17;;;0.83;;
19187;SDS011;9726;52.198;8.792;2023-04-01T02:20:17;1.60;;;0.87;;
19187;SDS011;9726;52.198;8.792;2023-04-01T02:22:47;3.17;;;1.10;;
19187;SDS011;9726;52.198;8.792;2023-04-01T02:25:19;2.77;;;1.30;;
19187;SDS011;9726;52.198;8.792;2023-04-01T02:27:48;2.93;;;1.07;;
19187;SDS011;9726;52.198;8.792;2023-04-01T02:30:16;4.10;;;1.23;;
19187;SDS011;9726;52.198;8.792;2023-04-01T02:32:44;10.90;;;1.37;;
19187;SDS011;9726;52.198;8.792;2023-04-01T02:35:12;2.30;;;1.00;;
19187;SDS011;9726;52.198;8.792;2023-04-01T02:37:41;2.43;;;1.03;;
19187;SDS011;9726;52.198;8.792;2023-04-01T02:40:13;1.83;;;0.90;;
19187;SDS011;9726;52.198;8.792;2023-04-01T02:42:41;7.00;;;0.90;;
19187;SDS011;9726;52.198;8.792;2023-04-01T02:45:09;2.03;;;0.80;;
19187;SDS011;9726;52.198;8.792;2023-04-01T02:47:37;2.73;;;0.90;;
19187;SDS011;9726;52.198;8.792;2023-04-01T02:50:04;6.20;;;1.20;;
19187;SDS011;9726;52.198;8.792;2023-04-01T02:52:32;3.63;;;0.90;;
19187;SDS011;9726;52.198;8.792;2023-04-01T02:55:01;2.57;;;0.83;;
19187;SDS011;9726;52.198;8.792;2023-04-01T02:57:29;4.53;;;1.10;;
19187;SDS011;9726;52.198;8.792;2023-04-01T02:59:56;5.00;;;0.80;;
19187;SDS011;9726;52.198;8.792;2023-04-01T03:02:24;4.43;;;1.00;;
19187;SDS011;9726;52.198;8.792;2023-04-01T03:04:52;3.80;;;0.80;;
19187;SDS011;9726;52.198;8.792;2023-04-01T03:07:19;7.27;;;1.23;;
19187;SDS011;9726;52.198;8.792;2023-04-01T03:09:48;1.77;;;1.07;;
19187;SDS011;9726;52.198;8.792;2023-04-01T03:12:15;1.77;;;0.83;;
19187;SDS011;9726;52.198;8.792;2023-04-01T03:14:49;4.23;;;1.10;;
19187;SDS011;9726;52.198;8.792;2023-04-01T03:17:16;4.40;;;1.00;;
19187;SDS011;9726;52.198;8.792;2023-04-01T03:19:44;1.97;;;0.97;;
19187;SDS011;9726;52.198;8.792;2023-04-01T03:22:12;2.13;;;0.80;;
19187;SDS011;9726;52.198;8.792;2023-04-01T03:24:40;3.20;;;1.17;;
19187;SDS011;9726;52.198;8.792;2023-04-01T03:27:07;8.77;;;1.10;;
19187;SDS011;9726;52.198;8.792;2023-04-01T03:29:34;6.63;;;1.23;;
19187;SDS011;9726;52.198;8.792;2023-04-01T03:32:03;11.63;;;0.90;;
19187;SDS011;9726;52.198;8.792;2023-04-01T03:34:30;1.87;;;0.93;;
19187;SDS011;9726;52.198;8.792;2023-04-01T03:36:58;2.43;;;0.90;;
19187;SDS011;9726;52.198;8.792;2023-04-01T03:39:26;3.47;;;1.00;;
19187;SDS011;9726;52.198;8.792;2023-04-01T03:41:53;2.00;;;1.00;;
19187;SDS011;9726;52.198;8.792;2023-04-01T03:44:21;1.50;;;0.80;;
19187;SDS011;9726;52.198;8.792;2023-04-01T03:46:51;2.33;;;0.70;;
19187;SDS011;9726;52.198;8.792;2023-04-01T03:49:19;3.67;;;1.40;;
19187;SDS011;9726;52.198;8.792;2023-04-01T03:51:46;3.40;;;0.70;;
19187;SDS011;9726;52.198;8.792;2023-04-01T03:54:14;2.33;;;0.80;;
19187;SDS011;9726;52.198;8.792;2023-04-01T03:56:43;2.50;;;0.97;;
19187;SDS011;9726;52.198;8.792;2023-04-01T03:59:11;2.07;;;0.70;;
19187;SDS011;9726;52.198;8.792;2023-04-01T04:01:39;4.40;;;0.90;;
19187;SDS011;9726;52.198;8.792;2023-04-01T04:04:06;3.40;;;0.70;;
19187;SDS011;9726;52.198;8.792;2023-04-01T04:06:34;3.97;;;0.90;;
19187;SDS011;9726;52.198;8.792;2023-04-01T04:09:02;0.40;;;0.40;;
19187;SDS011;9726;52.198;8.792;2023-04-01T04:11:30;1.27;;;0.80;;
19187;SDS011;9726;52.198;8.792;2023-04-01T04:14:00;3.27;;;1.27;;
19187;SDS011;9726;52.198;8.792;2023-04-01T04:16:28;2.03;;;1.00;;
19187;SDS011;9726;52.198;8.792;2023-04-01T04:18:59;3.70;;;0.80;;
19187;SDS011;9726;52.198;8.792;2023-04-01T04:21:27;5.67;;;0.90;;
19187;SDS011;9726;52.198;8.792;2023-04-01T04:23:54;4.07;;;0.97;;
19187;SDS011;9726;52.198;8.792;2023-04-01T04:26:22;2.73;;;1.07;;
19187;SDS011;9726;52.198;8.792;2023-04-01T04:28:58;2.30;;;0.83;;
19187;SDS011;9726;52.198;8.792;2023-04-01T04:31:25;3.40;;;0.80;;
19187;SDS011;9726;52.198;8.792;2023-04-01T04:33:55;2.57;;;0.80;;
19187;SDS011;9726;52.198;8.792;2023-04-01T04:36:23;1.03;;;0.80;;
19187;SDS011;9726;52.198;8.792;2023-04-01T04:38:51;6.27;;;0.83;;
19187;SDS011;9726;52.198;8.792;2023-04-01T04:41:19;2.97;;;0.90;;
19187;SDS011;9726;52.198;8.792;2023-04-01T04:43:53;2.10;;;0.70;;
19187;SDS011;9726;52.198;8.792;2023-04-01T04:46:23;2.83;;;0.77;;
19187;SDS011;9726;52.198;8.792;2023-04-01T04:48:57;2.77;;;0.70;;
19187;SDS011;9726;52.198;8.792;2023-04-01T04:51:25;7.20;;;2.07;;
19187;SDS011;9726;52.198;8.792;2023-04-01T04:53:52;1.43;;;0.70;;
19187;SDS011;9726;52.198;8.792;2023-04-01T04:56:28;1.10;;;0.70;;
19187;SDS011;9726;52.198;8.792;2023-04-01T04:59:04;0.97;;;0.87;;
19187;SDS011;9726;52.198;8.792;2023-04-01T05:01:42;2.30;;;0.80;;
19187;SDS011;9726;52.198;8.792;2023-04-01T05:04:09;3.17;;;0.63;;
19187;SDS011;9726;52.198;8.792;2023-04-01T05:06:37;1.93;;;0.60;;
19187;SDS011;9726;52.198;8.792;2023-04-01T05:09:05;2.53;;;0.83;;
19187;SDS011;9726;52.198;8.792;2023-04-01T05:11:33;1.63;;;0.80;;
19187;SDS011;9726;52.198;8.792;2023-04-01T05:14:00;1.83;;;0.97;;
19187;SDS011;9726;52.198;8.792;2023-04-01T05:16:30;1.20;;;1.00;;
19187;SDS011;9726;52.198;8.792;2023-04-01T05:18:58;0.87;;;0.73;;
19187;SDS011;9726;52.198;8.792;2023-04-01T05:21:26;4.50;;;0.70;;
19187;SDS011;9726;52.198;8.792;2023-04-01T05:23:55;2.83;;;0.73;;
19187;SDS011;9726;52.198;8.792;2023-04-01T05:26:24;1.90;;;0.90;;
19187;SDS011;9726;52.198;8.792;2023-04-01T05:28:51;1.80;;;1.00;;
19187;SDS011;9726;52.198;8.792;2023-04-01T05:31:19;1.30;;;0.60;;
19187;SDS011;9726;52.198;8.792;2023-04-01T05:33:48;3.03;;;0.50;;
19187;SDS011;9726;52.198;8.792;2023-04-01T05:36:16;3.03;;;1.57;;
19187;SDS011;9726;52.198;8.792;2023-04-01T05:38:43;1.40;;;0.80;;
19187;SDS011;9726;52.198;8.792;2023-04-01T05:41:13;1.43;;;0.60;;
19187;SDS011;9726;52.198;8.792;2023-04-01T05:43:44;2.00;;;0.60;;
19187;SDS011;9726;52.198;8.792;2023-04-01T05:46:30;0.97;;;0.70;;
19187;SDS011;9726;52.198;8.792;2023-04-01T05:49:07;0.70;;;0.70;;
19187;SDS011;9726;52.198;8.792;2023-04-01T05:51:34;2.77;;;2.40;;
19187;SDS011;9726;52.198;8.792;2023-04-01T05:54:04;2.00;;;0.70;;
19187;SDS011;9726;52.198;8.792;2023-04-01T05:56:31;0.90;;;0.70;;
19187;SDS011;9726;52.198;8.792;2023-04-01T05:59:01;2.60;;;0.90;;
19187;SDS011;9726;52.198;8.792;2023-04-01T06:01:28;0.70;;;0.70;;
19187;SDS011;9726;52.198;8.792;2023-04-01T06:04:00;1.20;;;0.60;;
19187;SDS011;9726;52.198;8.792;2023-04-01T06:06:28;2.83;;;1.23;;
19187;SDS011;9726;52.198;8.792;2023-04-01T06:09:12;0.67;;;0.60;;
19187;SDS011;9726;52.198;8.792;2023-04-01T06:14:21;1.87;;;0.80;;
19187;SDS011;9726;52.198;8.792;2023-04-01T06:19:47;0.70;;;0.70;;
19187;SDS011;9726;52.198;8.792;2023-04-01T06:22:22;1.50;;;0.67;;
19187;SDS011;9726;52.198;8.792;2023-04-01T06:25:03;0.80;;;0.80;;
19187;SDS011;9726;52.198;8.792;2023-04-01T06:35:52;0.77;;;0.50;;
19187;SDS011;9726;52.198;8.792;2023-04-01T06:38:19;1.30;;;0.63;;
19187;SDS011;9726;52.198;8.792;2023-04-01T06:40:53;3.90;;;0.80;;
19187;SDS011;9726;52.198;8.792;2023-04-01T06:49:29;20.17;;;1.57;;
19187;SDS011;9726;52.198;8.792;2023-04-01T06:52:27;5.30;;;1.07;;
19187;SDS011;9726;52.198;8.792;2023-04-01T06:55:32;5.20;;;0.80;;
19187;SDS011;9726;52.198;8.792;2023-04-01T06:58:41;2.43;;;0.40;;
19187;SDS011;9726;52.198;8.792;2023-04-01T07:01:12;2.20;;;0.70;;
19187;SDS011;9726;52.198;8.792;2023-04-01T07:03:43;3.57;;;0.60;;
19187;SDS011;9726;52.198;8.792;2023-04-01T07:06:31;4.13;;;0.63;;
19187;SDS011;9726;52.198;8.792;2023-04-01T07:09:02;1.60;;;0.50;;
19187;SDS011;9726;52.198;8.792;2023-04-01T07:11:52;0.60;;;0.60;;
19187;SDS011;9726;52.198;8.792;2023-04-01T07:15:00;2.40;;;0.70;;
19187;SDS011;9726;52.198;8.792;2023-04-01T07:17:30;0.40;;;0.40;;
19187;SDS011;9726;52.198;8.792;2023-04-01T07:20:02;1.70;;;0.63;;
19187;SDS011;9726;52.198;8.792;2023-04-01T07:25:15;1.43;;;0.63;;
19187;SDS011;9726;52.198;8.792;2023-04-01T07:28:02;0.90;;;0.60;;
19187;SDS011;9726;52.198;8.792;2023-04-01T07:30:58;1.83;;;0.90;;
19187;SDS011;9726;52.198;8.792;2023-04-01T07:36:03;0.50;;;0.50;;
19187;SDS011;9726;52.198;8.792;2023-04-01T07:44:34;0.50;;;0.47;;
19187;SDS011;9726;52.198;8.792;2023-04-01T09:52:12;1.20;;;0.83;;
19187;SDS011;9726;52.198;8.792;2023-04-01T10:00:41;2.50;;;0.97;;
19187;SDS011;9726;52.198;8.792;2023-04-01T10:06:17;1.13;;;0.87;;
19187;SDS011;9726;52.198;8.792;2023-04-01T10:11:42;1.27;;;1.03;;
19187;SDS011;9726;52.198;8.792;2023-04-01T10:17:08;4.13;;;1.00;;
19187;SDS011;9726;52.198;8.792;2023-04-01T10:25:05;2.40;;;0.97;;
19187;SDS011;9726;52.198;8.792;2023-04-01T10:31:06;2.53;;;1.83;;
19187;SDS011;9726;52.198;8.792;2023-04-01T10:36:35;2.60;;;1.10;;
19187;SDS011;9726;52.198;8.792;2023-04-01T10:47:39;0.90;;;0.90;;
19187;SDS011;9726;52.198;8.792;2023-04-01T10:55:51;0.53;;;0.53;;
19187;SDS011;9726;52.198;8.792;2023-04-01T10:58:49;4.30;;;1.53;;
19187;SDS011;9726;52.198;8.792;2023-04-01T11:01:52;0.50;;;0.50;;
19187;SDS011;9726;52.198;8.792;2023-04-01T11:26:52;1.67;;;0.70;;
19187;SDS011;9726;52.198;8.792;2023-04-01T11:40:47;0.70;;;0.70;;
19187;SDS011;9726;52.198;8.792;2023-04-01T11:43:43;1.73;;;0.40;;
19187;SDS011;9726;52.198;8.792;2023-04-01T11:51:50;0.60;;;0.50;;
19187;SDS011;9726;52.198;8.792;2023-04-01T11:57:12;0.67;;;0.67;;
19187;SDS011;9726;52.198;8.792;2023-04-01T12:02:29;0.50;;;0.50;;
19187;SDS011;9726;52.198;8.792;2023-04-01T12:07:50;2.70;;;1.93;;
19187;SDS011;9726;52.198;8.792;2023-04-01T12:10:21;0.80;;;0.80;;
19187;SDS011;9726;52.198;8.792;2023-04-01T12:18:13;0.60;;;0.53;;
19187;SDS011;9726;52.198;8.792;2023-04-01T12:20:50;0.40;;;0.40;;
19187;SDS011;9726;52.198;8.792;2023-04-01T12:38:30;0.80;;;0.80;;
19187;SDS011;9726;52.198;8.792;2023-04-01T12:41:07;2.33;;;0.73;;
19187;SDS011;9726;52.198;8.792;2023-04-01T12:51:41;1.13;;;0.70;;
19187;SDS011;9726;52.198;8.792;2023-04-01T12:59:31;4.97;;;1.77;;
19187;SDS011;9726;52.198;8.792;2023-04-01T13:02:17;1.60;;;1.20;;
19187;SDS011;9726;52.198;8.792;2023-04-01T13:20:36;1.30;;;1.17;;
19187;SDS011;9726;52.198;8.792;2023-04-01T13:23:17;1.80;;;1.37;;
19187;SDS011;9726;52.198;8.792;2023-04-01T13:28:53;2.77;;;1.90;;
19187;SDS011;9726;52.198;8.792;2023-04-01T13:31:26;3.60;;;1.77;;
19187;SDS011;9726;52.198;8.792;2023-04-01T13:47:34;1.80;;;1.20;;
19187;SDS011;9726;52.198;8.792;2023-04-01T14:00:54;1.40;;;1.10;;
19187;SDS011;9726;52.198;8.792;2023-04-01T14:06:10;0.80;;;0.80;;
19187;SDS011;9726;52.198;8.792;2023-04-01T14:09:03;0.83;;;0.80;;
19187;SDS011;9726;52.198;8.792;2023-04-01T14:11:53;1.27;;;1.03;;
19187;SDS011;9726;52.198;8.792;2023-04-01T14:22:24;1.57;;;0.73;;
19187;SDS011;9726;52.198;8.792;2023-04-01T14:30:32;3.67;;;0.87;;
19187;SDS011;9726;52.198;8.792;2023-04-01T14:41:00;1.80;;;0.90;;
19187;SDS011;9726;52.198;8.792;2023-04-01T14:49:02;0.73;;;0.70;;
19187;SDS011;9726;52.198;8.792;2023-04-01T14:51:35;0.67;;;0.67;;
19187;SDS011;9726;52.198;8.792;2023-04-01T14:56:44;0.77;;;0.77;;
19187;SDS011;9726;52.198;8.792;2023-04-01T15:01:56;4.43;;;1.63;;
19187;SDS011;9726;52.198;8.792;2023-04-01T15:04:41;2.73;;;0.80;;
19187;SDS011;9726;52.198;8.792;2023-04-01T15:07:35;2.10;;;0.80;;
19187;SDS011;9726;52.198;8.792;2023-04-01T15:12:39;4.93;;;1.10;;
19187;SDS011;9726;52.198;8.792;2023-04-01T15:15:16;2.07;;;0.60;;
19187;SDS011;9726;52.198;8.792;2023-04-01T15:36:01;3.47;;;2.03;;
19187;SDS011;9726;52.198;8.792;2023-04-01T15:41:16;4.17;;;1.70;;
19187;SDS011;9726;52.198;8.792;2023-04-01T15:43:48;1.47;;;1.03;;
19187;SDS011;9726;52.198;8.792;2023-04-01T15:46:27;3.23;;;1.40;;
19187;SDS011;9726;52.198;8.792;2023-04-01T15:54:26;1.10;;;1.00;;
19187;SDS011;9726;52.198;8.792;2023-04-01T16:02:34;2.40;;;1.90;;
19187;SDS011;9726;52.198;8.792;2023-04-01T16:05:08;2.50;;;2.30;;
19187;SDS011;9726;52.198;8.792;2023-04-01T16:13:14;2.27;;;2.00;;
19187;SDS011;9726;52.198;8.792;2023-04-01T16:15:38;4.47;;;2.77;;
19187;SDS011;9726;52.198;8.792;2023-04-01T16:21:12;4.03;;;3.43;;
19187;SDS011;9726;52.198;8.792;2023-04-01T16:29:10;3.33;;;3.03;;
19187;SDS011;9726;52.198;8.792;2023-04-01T16:34:17;3.80;;;3.30;;
19187;SDS011;9726;52.198;8.792;2023-04-01T16:36:58;4.97;;;3.97;;
19187;SDS011;9726;52.198;8.792;2023-04-01T16:39:33;5.40;;;3.43;;
19187;SDS011;9726;52.198;8.792;2023-04-01T16:47:35;6.60;;;3.50;;
19187;SDS011;9726;52.198;8.792;2023-04-01T16:52:58;5.87;;;4.40;;
19187;SDS011;9726;52.198;8.792;2023-04-01T16:55:34;8.03;;;3.70;;
19187;SDS011;9726;52.198;8.792;2023-04-01T16:58:03;6.03;;;4.00;;
19187;SDS011;9726;52.198;8.792;2023-04-01T17:00:41;9.27;;;3.77;;
19187;SDS011;9726;52.198;8.792;2023-04-01T17:03:20;4.50;;;3.73;;
19187;SDS011;9726;52.198;8.792;2023-04-01T17:05:56;4.83;;;3.13;;
19187;SDS011;9726;52.198;8.792;2023-04-01T17:08:35;2.43;;;2.23;;
19187;SDS011;9726;52.198;8.792;2023-04-01T17:11:21;1.83;;;1.73;;
19187;SDS011;9726;52.198;8.792;2023-04-01T17:30:35;2.40;;;2.20;;
